Time;durP1;ratioP1;P1;durP2;ratioP2;P2;SDS_P1;SDS_P2;PMS_P1;PMS_P2;Temp;Humidity;BMP_temperature;BMP_pressure;BME280_temperature;BME280_humidity;BME280_pressure;Samples;Min_cycle;Max_cycle;Signal;HPM_P1;HPM_P2
2023/02/12 00:00:36;;;;;;;0.50;0.45;;;7.40;99.90;;;;;;4428218;32;20139;-67
2023/02/12 00:03:01;;;;;;;0.43;0.43;;;7.40;99.90;;;;;;4432843;32;20528;-66
2023/02/12 00:05:27;;;;;;;6.28;1.65;;;7.40;99.90;;;;;;4430594;32;20069;-66
2023/02/12 00:07:53;;;;;;;4.03;1.48;;;7.40;99.90;;;;;;4431835;32;20188;-66
2023/02/12 00:10:19;;;;;;;0.40;0.35;;;7.40;99.90;;;;;;4434496;32;20077;-67
2023/02/12 00:12:44;;;;;;;1.45;1.15;;;7.40;99.90;;;;;;4434963;32;20073;-66
2023/02/12 00:15:10;;;;;;;0.52;0.52;;;7.40;99.90;;;;;;4433844;32;20451;-66
2023/02/12 00:17:35;;;;;;;0.30;0.30;;;7.30;99.90;;;;;;4417297;32;20096;-66
2023/02/12 00:20:01;;;;;;;0.40;0.40;;;7.40;99.90;;;;;;4431560;32;20087;-66
2023/02/12 00:22:28;;;;;;;1.80;1.05;;;7.40;99.90;;;;;;4415020;32;20739;-66
2023/02/12 00:24:54;;;;;;;0.30;0.30;;;7.40;99.90;;;;;;4434277;32;20097;-66
2023/02/12 00:27:19;;;;;;;0.62;0.62;;;7.30;99.90;;;;;;4416496;32;20077;-67
2023/02/12 00:29:45;;;;;;;0.40;0.40;;;7.30;99.90;;;;;;4429335;32;20085;-66
2023/02/12 00:32:10;;;;;;;0.47;0.47;;;7.30;99.90;;;;;;4434140;32;20135;-67
2023/02/12 00:34:36;;;;;;;0.40;0.40;;;7.30;99.90;;;;;;4433190;32;20065;-66
2023/02/12 00:37:01;;;;;;;0.30;0.30;;;7.30;99.90;;;;;;4435893;32;20529;-66
2023/02/12 00:39:27;;;;;;;0.50;0.50;;;7.30;99.90;;;;;;4422263;32;20086;-67
2023/02/12 00:41:52;;;;;;;0.60;0.60;;;7.40;99.90;;;;;;4430853;32;20149;-66
2023/02/12 00:44:18;;;;;;;0.30;0.30;;;7.40;99.90;;;;;;4424104;32;20085;-66
2023/02/12 00:46:43;;;;;;;7.85;1.17;;;7.40;99.90;;;;;;4434098;32;20077;-67
2023/02/12 00:49:09;;;;;;;0.50;0.50;;;7.40;99.90;;;;;;4434217;32;20081;-67
2023/02/12 00:51:34;;;;;;;4.70;0.60;;;7.40;99.90;;;;;;4430339;32;20087;-66
2023/02/12 00:54:00;;;;;;;6.97;1.67;;;7.40;99.90;;;;;;4431096;32;20150;-66
2023/02/12 00:56:25;;;;;;;0.73;0.73;;;7.30;99.90;;;;;;4416292;32;20085;-66
2023/02/12 00:58:51;;;;;;;4.47;1.65;;;7.30;99.90;;;;;;4432384;32;20191;-67
2023/02/12 01:01:17;;;;;;;0.50;0.50;;;7.30;99.90;;;;;;4422482;32;20580;-66
2023/02/12 01:03:42;;;;;;;1.73;1.12;;;7.30;99.90;;;;;;4436407;32;20101;-67
2023/02/12 01:06:08;;;;;;;0.45;0.45;;;7.30;99.90;;;;;;4434439;32;20085;-67
2023/02/12 01:08:33;;;;;;;17.17;1.80;;;7.30;99.90;;;;;;4429445;32;20073;-66
2023/02/12 01:11:01;;;;;;;0.40;0.40;;;7.30;99.90;;;;;;4431945;32;20069;-66
2023/02/12 01:13:29;;;;;;;2.45;0.98;;;7.30;99.90;;;;;;4419908;32;20524;-66
2023/02/12 01:16:17;;;;;;;2.25;1.42;;;7.30;99.90;;;;;;4433087;32;20454;-66
2023/02/12 01:18:43;;;;;;;4.30;3.03;;;7.20;99.90;;;;;;4420414;32;20163;-66
2023/02/12 01:21:18;;;;;;;0.43;0.43;;;7.20;99.90;;;;;;4433754;32;20072;-66
2023/02/12 01:23:44;;;;;;;0.30;0.30;;;7.20;99.90;;;;;;4416901;32;20403;-67
2023/02/12 01:26:11;;;;;;;4.47;1.15;;;7.20;99.90;;;;;;4435782;32;20141;-65
2023/02/12 01:28:38;;;;;;;0.30;0.30;;;7.20;99.90;;;;;;4417632;32;20237;-66
2023/02/12 01:31:10;;;;;;;0.30;0.30;;;7.20;99.90;;;;;;4435461;32;20808;-66
2023/02/12 01:33:36;;;;;;;0.98;0.88;;;7.20;99.90;;;;;;4437483;32;20430;-66
2023/02/12 01:36:01;;;;;;;1.87;1.15;;;7.20;99.90;;;;;;4435058;32;20096;-66
2023/02/12 01:38:27;;;;;;;3.15;1.42;;;7.20;99.90;;;;;;4434482;32;20429;-67
2023/02/12 01:40:52;;;;;;;0.50;0.50;;;7.20;99.90;;;;;;4433920;32;20072;-66
2023/02/12 01:43:18;;;;;;;6.55;0.77;;;7.20;99.90;;;;;;4434349;32;20104;-66
2023/02/12 01:45:51;;;;;;;0.52;0.40;;;7.10;99.90;;;;;;4434244;32;20093;-66
2023/02/12 01:48:19;;;;;;;0.88;0.68;;;7.20;99.90;;;;;;4433077;32;20106;-68
2023/02/12 01:50:46;;;;;;;0.70;0.68;;;7.20;99.90;;;;;;4415467;32;20076;-65
2023/02/12 01:53:18;;;;;;;0.80;0.80;;;7.20;99.90;;;;;;4406393;32;20088;-65
2023/02/12 01:55:47;;;;;;;0.50;0.50;;;7.20;99.90;;;;;;4429036;32;20098;-66
2023/02/12 01:58:13;;;;;;;1.40;1.25;;;7.20;99.90;;;;;;4417739;32;20501;-66
2023/02/12 02:00:39;;;;;;;30.75;1.67;;;7.20;99.90;;;;;;4432315;32;20085;-66
2023/02/12 02:03:04;;;;;;;3.00;1.40;;;7.20;99.90;;;;;;4433824;32;20088;-66
2023/02/12 02:05:55;;;;;;;0.95;0.82;;;7.30;99.90;;;;;;4431744;32;20474;-66
2023/02/12 02:08:21;;;;;;;0.65;0.65;;;7.30;99.90;;;;;;4411322;32;20097;-66
2023/02/12 02:10:47;;;;;;;0.57;0.57;;;7.30;99.90;;;;;;4431048;32;20254;-66
2023/02/12 02:14:44;;;;;;;0.37;0.37;;;7.30;99.90;;;;;;4432813;32;20076;-66
2023/02/12 02:16:09;;;;;;;0.52;0.52;;;7.20;99.90;;;;;;4417187;32;20128;-66
2023/02/12 02:18:54;;;;;;;0.52;0.52;;;7.20;99.90;;;;;;4429908;32;20093;-66
2023/02/12 02:21:47;;;;;;;0.30;0.30;;;7.20;99.90;;;;;;4428898;32;20903;-66
2023/02/12 02:24:39;;;;;;;1.00;0.75;;;7.20;99.90;;;;;;4430608;32;20085;-66
2023/02/12 02:27:14;;;;;;;0.30;0.30;;;7.20;99.90;;;;;;4422194;32;20504;-66
2023/02/12 02:30:06;;;;;;;0.70;0.70;;;7.30;99.90;;;;;;4416808;32;20439;-66
2023/02/12 02:32:38;;;;;;;0.43;0.43;;;7.10;99.90;;;;;;4428488;32;20081;-66
2023/02/12 02:35:10;;;;;;;0.47;0.47;;;7.10;99.90;;;;;;4431036;32;20085;-66
2023/02/12 02:37:48;;;;;;;0.60;0.60;;;7.10;99.90;;;;;;4418373;32;20123;-66
2023/02/12 02:40:19;;;;;;;1.17;0.93;;;7.00;99.90;;;;;;4415983;32;20167;-66
2023/02/12 02:42:52;;;;;;;0.55;0.55;;;7.00;99.90;;;;;;4420602;32;20073;-66
2023/02/12 02:45:30;;;;;;;0.60;0.60;;;7.00;99.90;;;;;;4434077;32;20088;-67
2023/02/12 02:48:02;;;;;;;0.73;0.68;;;7.00;99.90;;;;;;4417194;32;20426;-66
2023/02/12 02:50:30;;;;;;;0.52;0.52;;;7.00;99.90;;;;;;4433098;32;20070;-66
2023/02/12 02:53:03;;;;;;;0.30;0.30;;;7.00;99.90;;;;;;4428220;32;20135;-66
2023/02/12 02:55:39;;;;;;;0.62;0.62;;;7.10;99.90;;;;;;4431616;32;20077;-66
2023/02/12 02:58:11;;;;;;;0.98;0.98;;;7.20;99.90;;;;;;4415531;32;20083;-66
2023/02/12 03:00:42;;;;;;;0.60;0.60;;;7.10;99.90;;;;;;4415548;32;20140;-67
2023/02/12 03:03:31;;;;;;;1.02;0.98;;;7.10;99.90;;;;;;4429816;32;20082;-66
2023/02/12 03:06:03;;;;;;;5.28;0.95;;;7.20;99.90;;;;;;4430674;32;20089;-65
2023/02/12 03:08:36;;;;;;;1.05;1.00;;;7.20;99.90;;;;;;4415840;32;20179;-65
2023/02/12 03:11:09;;;;;;;4.40;1.30;;;7.20;99.90;;;;;;4429377;32;20820;-65
2023/02/12 03:13:45;;;;;;;0.43;0.43;;;7.20;99.90;;;;;;4430630;32;20082;-65
2023/02/12 03:16:33;;;;;;;24.63;0.60;;;7.20;99.90;;;;;;4431999;32;20085;-65
2023/02/12 03:19:19;;;;;;;1.60;0.90;;;7.20;99.90;;;;;;4417636;32;20177;-65
2023/02/12 03:21:50;;;;;;;0.50;0.50;;;7.10;99.90;;;;;;4411129;32;20155;-65
2023/02/12 03:24:24;;;;;;;;;;;7.10;99.90;;;;;;4427164;32;20081;-66
2023/02/12 03:26:56;;;;;;;0.30;0.30;;;7.10;99.90;;;;;;4428614;32;20329;-66
2023/02/12 03:29:22;;;;;;;0.30;0.30;;;7.00;99.90;;;;;;4417469;32;20069;-66
2023/02/12 03:32:00;;;;;;;0.80;0.80;;;6.90;99.90;;;;;;4430344;32;20085;-66
2023/02/12 03:34:38;;;;;;;0.32;0.32;;;7.00;99.90;;;;;;4432297;32;20155;-66
2023/02/12 03:37:10;;;;;;;2.28;2.05;;;7.10;99.90;;;;;;4433309;32;20536;-66
2023/02/12 03:39:57;;;;;;;0.98;0.88;;;7.10;99.90;;;;;;4431103;32;20076;-66
2023/02/12 03:42:43;;;;;;;1.23;1.10;;;7.10;99.90;;;;;;4428316;32;20089;-66
2023/02/12 03:45:23;;;;;;;0.73;0.73;;;7.10;99.90;;;;;;4416318;32;20065;-66
2023/02/12 03:48:00;;;;;;;1.12;0.70;;;7.00;99.90;;;;;;4430747;32;20521;-67
2023/02/12 03:50:37;;;;;;;1.45;0.60;;;7.10;99.90;;;;;;4411125;32;20049;-66
2023/02/12 03:53:04;;;;;;;0.77;0.77;;;7.10;99.90;;;;;;4429035;32;20113;-66
2023/02/12 03:55:34;;;;;;;2.50;1.00;;;7.00;99.90;;;;;;4434704;32;20120;-66
2023/02/12 03:58:02;;;;;;;0.40;0.40;;;7.00;99.90;;;;;;4433797;32;20061;-66
2023/02/12 04:00:27;;;;;;;4.40;1.67;;;6.90;99.90;;;;;;4430835;32;20495;-66
2023/02/12 04:02:54;;;;;;;0.30;0.30;;;6.80;99.90;;;;;;4434734;32;20111;-66
2023/02/12 04:05:22;;;;;;;0.30;0.30;;;6.80;99.90;;;;;;4414586;32;20097;-66
2023/02/12 04:07:48;;;;;;;0.90;0.73;;;6.90;99.90;;;;;;4430098;32;20438;-66
2023/02/12 04:10:15;;;;;;;1.70;1.30;;;7.00;99.90;;;;;;4432137;32;20069;-66
2023/02/12 04:12:59;;;;;;;3.40;2.05;;;7.00;99.90;;;;;;4413218;32;20092;-66
2023/02/12 04:15:42;;;;;;;6.55;1.77;;;7.00;99.90;;;;;;4417525;32;20604;-66
2023/02/12 04:18:13;;;;;;;3.67;1.55;;;7.00;99.90;;;;;;4438999;32;20077;-66
2023/02/12 04:20:55;;;;;;;0.45;0.40;;;7.10;99.90;;;;;;4439807;32;20069;-66
2023/02/12 04:23:40;;;;;;;0.95;0.57;;;7.00;99.90;;;;;;4433815;32;20077;-67
2023/02/12 04:26:11;;;;;;;1.05;0.85;;;7.00;99.90;;;;;;4435910;32;20442;-66
2023/02/12 04:29:16;;;;;;;1.02;0.80;;;7.00;99.90;;;;;;4431020;32;20651;-66
2023/02/12 04:31:56;;;;;;;0.43;0.43;;;7.00;99.90;;;;;;4419494;32;20092;-66
2023/02/12 04:34:43;;;;;;;10.67;0.63;;;7.00;99.90;;;;;;4445283;32;20128;-66
2023/02/12 04:37:17;;;;;;;0.60;0.60;;;7.00;99.90;;;;;;4427214;32;20080;-67
2023/02/12 04:39:44;;;;;;;2.08;1.08;;;7.10;99.90;;;;;;4437001;32;20183;-66
2023/02/12 04:42:10;;;;;;;0.60;0.60;;;7.10;99.90;;;;;;4435151;32;20168;-66
2023/02/12 04:44:40;;;;;;;0.40;0.40;;;6.90;99.90;;;;;;4419184;32;20089;-66
2023/02/12 04:47:06;;;;;;;;;;;6.90;99.90;;;;;;4421253;32;20441;-66
2023/02/12 04:49:32;;;;;;;0.50;0.50;;;6.90;99.90;;;;;;4433904;32;19952;-66
2023/02/12 04:51:57;;;;;;;1.30;0.88;;;6.90;99.90;;;;;;4435987;32;20064;-66
2023/02/12 04:54:23;;;;;;;1.75;1.27;;;7.00;99.90;;;;;;4416213;32;20919;-66
2023/02/12 04:56:49;;;;;;;0.62;0.62;;;6.90;99.90;;;;;;4434820;32;20081;-66
2023/02/12 04:59:15;;;;;;;2.42;0.77;;;6.90;99.90;;;;;;4436835;32;20513;-66
2023/02/12 05:01:41;;;;;;;24.55;1.42;;;7.00;99.90;;;;;;4416556;32;20057;-66
2023/02/12 05:04:07;;;;;;;12.57;1.73;;;7.00;99.90;;;;;;4437077;32;20168;-66
2023/02/12 05:06:35;;;;;;;1.00;0.95;;;7.00;99.90;;;;;;4436896;32;20081;-66
2023/02/12 05:09:01;;;;;;;6.78;0.75;;;6.90;99.90;;;;;;4417690;32;20725;-69
2023/02/12 05:11:26;;;;;;;1.20;0.98;;;6.90;99.90;;;;;;4432928;32;20089;-66
2023/02/12 05:13:53;;;;;;;2.22;1.33;;;6.90;99.90;;;;;;4438698;32;20081;-66
2023/02/12 05:16:20;;;;;;;3.17;0.93;;;6.90;99.90;;;;;;4435715;32;20131;-66
2023/02/12 05:18:46;;;;;;;1.45;0.90;;;6.90;99.90;;;;;;4435928;32;20129;-66
2023/02/12 05:21:12;;;;;;;0.40;0.40;;;6.70;99.90;;;;;;4435633;32;20128;-66
2023/02/12 05:23:39;;;;;;;0.30;0.30;;;6.70;99.90;;;;;;4429700;32;20109;-66
2023/02/12 05:26:09;;;;;;;2.05;0.90;;;6.60;99.90;;;;;;4432302;32;20120;-66
2023/02/12 05:28:35;;;;;;;0.62;0.62;;;6.80;99.90;;;;;;4416621;32;20171;-67
2023/02/12 05:31:02;;;;;;;0.50;0.50;;;6.90;99.90;;;;;;4436102;32;20076;-66
2023/02/12 05:33:28;;;;;;;0.30;0.30;;;6.90;99.90;;;;;;4417540;32;20061;-66
2023/02/12 05:35:54;;;;;;;3.65;1.50;;;7.00;99.90;;;;;;4436313;32;20479;-65
2023/02/12 05:38:20;;;;;;;1.83;1.40;;;7.00;99.90;;;;;;4435973;32;20056;-66
2023/02/12 05:40:46;;;;;;;3.22;1.02;;;6.90;99.90;;;;;;4417085;32;20552;-65
2023/02/12 05:43:12;;;;;;;2.67;1.75;;;7.00;99.90;;;;;;4429194;32;20141;-66
2023/02/12 05:45:40;;;;;;;0.75;0.75;;;6.90;99.90;;;;;;4434364;32;20508;-66
2023/02/12 05:48:06;;;;;;;1.55;0.98;;;6.90;99.90;;;;;;4432291;32;20081;-68
2023/02/12 05:50:31;;;;;;;0.50;0.50;;;6.90;99.90;;;;;;4434758;32;20105;-66
2023/02/12 05:52:59;;;;;;;0.40;0.40;;;6.80;99.90;;;;;;4431805;32;20539;-66
2023/02/12 05:55:25;;;;;;;0.85;0.80;;;6.70;99.90;;;;;;4432640;32;20077;-66
2023/02/12 05:57:50;;;;;;;0.73;0.73;;;6.60;99.90;;;;;;4419582;32;20081;-66
2023/02/12 06:00:16;;;;;;;0.52;0.52;;;6.60;99.90;;;;;;4418250;32;20061;-66
2023/02/12 06:02:42;;;;;;;2.00;0.98;;;6.60;99.90;;;;;;4434020;32;20089;-66
2023/02/12 06:05:07;;;;;;;2.30;1.23;;;6.70;99.90;;;;;;4432022;32;20144;-66
2023/02/12 06:07:33;;;;;;;14.70;1.20;;;6.80;99.90;;;;;;4432863;32;20097;-65
2023/02/12 06:09:58;;;;;;;0.68;0.68;;;6.80;99.90;;;;;;4433500;32;20803;-66
2023/02/12 06:12:24;;;;;;;0.52;0.52;;;6.80;99.90;;;;;;4433435;32;20072;-66
2023/02/12 06:14:49;;;;;;;0.45;0.45;;;6.80;99.90;;;;;;4431984;32;20412;-65
2023/02/12 06:17:15;;;;;;;0.43;0.43;;;6.90;99.90;;;;;;4434491;32;20147;-65
2023/02/12 06:19:40;;;;;;;0.50;0.50;;;6.80;99.90;;;;;;4431601;32;20416;-65
2023/02/12 06:22:06;;;;;;;0.65;0.65;;;6.90;99.90;;;;;;4432412;32;20105;-65
2023/02/12 06:24:31;;;;;;;4.62;1.30;;;6.90;99.90;;;;;;4417089;32;20563;-66
2023/02/12 06:26:57;;;;;;;0.30;0.30;;;6.90;99.90;;;;;;4435348;32;20149;-66
2023/02/12 06:29:22;;;;;;;4.03;1.40;;;6.90;99.90;;;;;;4433219;32;20069;-66
2023/02/12 06:31:48;;;;;;;1.55;1.00;;;6.90;99.90;;;;;;4432857;32;20089;-65
2023/02/12 06:34:16;;;;;;;6.50;0.90;;;6.90;99.90;;;;;;4418325;32;20114;-66
2023/02/12 06:36:43;;;;;;;5.10;1.02;;;6.90;99.90;;;;;;4414205;32;20132;-65
2023/02/12 06:39:10;;;;;;;0.40;0.40;;;6.90;99.90;;;;;;4434066;32;20061;-65
2023/02/12 06:41:36;;;;;;;1.20;0.77;;;6.90;99.90;;;;;;4431213;32;20109;-65
2023/02/12 06:44:02;;;;;;;2.37;0.55;;;6.90;99.90;;;;;;4433605;32;20073;-65
2023/02/12 06:46:27;;;;;;;1.35;0.52;;;6.80;99.90;;;;;;4433396;32;20536;-65
2023/02/12 06:48:54;;;;;;;24.80;0.93;;;6.90;99.90;;;;;;4417399;32;20073;-65
2023/02/12 06:51:22;;;;;;;1.05;0.80;;;6.90;99.90;;;;;;4434232;32;20262;-67
2023/02/12 06:53:48;;;;;;;4.85;1.00;;;6.90;99.90;;;;;;4431521;32;20077;-66
2023/02/12 06:56:14;;;;;;;4.12;1.12;;;6.90;99.90;;;;;;4417466;32;20507;-65
2023/02/12 06:58:41;;;;;;;20.15;0.95;;;6.80;99.90;;;;;;4433167;32;20061;-65
2023/02/12 07:01:12;;;;;;;0.40;0.40;;;6.80;99.90;;;;;;4428286;32;20127;-65
2023/02/12 07:03:40;;;;;;;0.88;0.88;;;6.80;99.90;;;;;;4433685;32;20128;-65
2023/02/12 07:06:06;;;;;;;1.40;0.75;;;6.90;99.90;;;;;;4428496;32;20080;-65
2023/02/12 07:08:31;;;;;;;0.65;0.65;;;6.90;99.90;;;;;;4432041;32;20074;-67
2023/02/12 07:10:57;;;;;;;7.93;1.33;;;6.90;99.90;;;;;;4430906;32;20093;-66
2023/02/12 07:13:22;;;;;;;2.05;1.27;;;6.90;99.90;;;;;;4436428;32;20065;-66
2023/02/12 07:15:48;;;;;;;0.95;0.75;;;6.90;99.90;;;;;;4433742;32;20422;-65
2023/02/12 07:18:14;;;;;;;1.25;1.15;;;6.90;99.90;;;;;;4417653;32;20073;-66
2023/02/12 07:20:39;;;;;;;0.40;0.40;;;6.90;99.90;;;;;;4436324;32;20084;-66
2023/02/12 07:23:04;;;;;;;1.17;0.85;;;6.90;99.90;;;;;;4431144;32;20153;-66
2023/02/12 07:25:30;;;;;;;3.08;1.33;;;6.90;99.90;;;;;;4434663;32;20131;-66
2023/02/12 07:27:55;;;;;;;3.62;1.00;;;6.90;99.90;;;;;;4416462;32;20085;-67
2023/02/12 07:30:21;;;;;;;0.85;0.57;;;6.90;99.90;;;;;;4435555;32;20101;-66
2023/02/12 07:32:46;;;;;;;0.47;0.47;;;6.90;99.90;;;;;;4434709;32;20068;-66
2023/02/12 07:35:12;;;;;;;0.88;0.77;;;7.00;99.90;;;;;;4430931;32;20061;-66
2023/02/12 07:37:37;;;;;;;3.90;1.58;;;7.00;99.90;;;;;;4429504;32;20084;-66
2023/02/12 07:40:03;;;;;;;1.05;0.90;;;6.90;99.90;;;;;;4432604;32;20092;-67
2023/02/12 07:42:29;;;;;;;0.80;0.80;;;6.90;99.90;;;;;;4429776;32;20061;-66
2023/02/12 07:44:54;;;;;;;0.98;0.77;;;7.00;99.90;;;;;;4436796;32;20093;-68
2023/02/12 07:47:20;;;;;;;0.30;0.30;;;7.00;99.90;;;;;;4429142;32;20549;-66
2023/02/12 07:49:45;;;;;;;0.30;0.30;;;7.00;99.90;;;;;;4432168;32;20060;-67
2023/02/12 07:52:11;;;;;;;0.40;0.40;;;6.90;99.90;;;;;;4432275;32;20815;-67
2023/02/12 07:54:36;;;;;;;1.17;0.60;;;6.90;99.90;;;;;;4431812;32;20093;-65
2023/02/12 07:57:02;;;;;;;0.65;0.60;;;7.00;99.90;;;;;;4430420;32;20437;-65
2023/02/12 07:59:27;;;;;;;0.75;0.75;;;7.00;99.90;;;;;;4428650;32;20076;-66
2023/02/12 08:01:55;;;;;;;8.88;0.82;;;7.10;99.90;;;;;;4430276;32;20084;-66
2023/02/12 08:04:22;;;;;;;4.57;0.93;;;7.20;99.90;;;;;;4432090;32;20094;-66
2023/02/12 08:06:50;;;;;;;17.20;1.62;;;7.20;99.90;;;;;;4432373;32;20073;-66
2023/02/12 08:09:18;;;;;;;4.28;0.70;;;7.30;99.90;;;;;;4415976;32;20065;-66
2023/02/12 08:11:44;;;;;;;0.43;0.43;;;7.30;99.90;;;;;;4413513;32;20549;-66
2023/02/12 08:14:16;;;;;;;0.50;0.50;;;7.30;99.90;;;;;;4432130;32;20062;-66
2023/02/12 08:16:43;;;;;;;2.05;0.88;;;7.30;99.90;;;;;;4417747;32;20062;-66
2023/02/12 08:19:08;;;;;;;2.25;1.17;;;7.30;99.90;;;;;;4427699;32;20088;-68
2023/02/12 08:21:34;;;;;;;1.15;0.95;;;7.30;99.90;;;;;;4430376;32;20108;-66
2023/02/12 08:24:00;;;;;;;0.62;0.62;;;7.30;99.90;;;;;;4432437;32;20061;-67
2023/02/12 08:26:29;;;;;;;0.55;0.55;;;7.30;99.90;;;;;;4429666;32;20089;-66
2023/02/12 08:29:00;;;;;;;0.77;0.75;;;7.30;99.90;;;;;;4415000;32;20445;-66
2023/02/12 08:31:28;;;;;;;;;;;7.40;99.90;;;;;;4415185;32;21329;-66
2023/02/12 08:33:54;;;;;;;0.85;0.60;;;7.50;99.90;;;;;;4433888;32;19944;-65
2023/02/12 08:36:24;;;;;;;1.52;0.73;;;7.50;99.90;;;;;;4436828;32;20070;-65
2023/02/12 08:38:51;;;;;;;0.80;0.77;;;7.50;99.90;;;;;;4413745;32;20077;-65
2023/02/12 08:41:20;;;;;;;0.45;0.45;;;7.50;99.90;;;;;;4415549;32;20106;-65
2023/02/12 08:43:45;;;;;;;0.50;0.50;;;7.40;99.90;;;;;;4426855;32;20626;-66
2023/02/12 08:46:14;;;;;;;0.30;0.30;;;7.40;99.90;;;;;;4409622;32;20081;-66
2023/02/12 08:48:40;;;;;;;4.30;1.23;;;7.50;99.90;;;;;;4408803;32;20110;-66
2023/02/12 08:51:14;;;;;;;1.27;1.17;;;7.40;99.90;;;;;;4429401;32;20119;-66
2023/02/12 08:53:41;;;;;;;0.90;0.50;;;7.50;99.90;;;;;;4427980;32;20108;-65
2023/02/12 08:56:09;;;;;;;5.57;2.12;;;7.50;99.90;;;;;;4413602;32;20080;-65
2023/02/12 08:58:36;;;;;;;7.85;1.48;;;7.50;99.90;;;;;;4416168;32;20119;-65
2023/02/12 09:01:02;;;;;;;2.17;1.00;;;7.50;99.90;;;;;;4406895;32;20067;-65
2023/02/12 09:03:27;;;;;;;0.60;0.40;;;7.50;99.90;;;;;;4434064;32;20066;-65
2023/02/12 09:05:53;;;;;;;3.20;1.70;;;7.50;99.90;;;;;;4419241;32;20489;-65
2023/02/12 09:08:19;;;;;;;0.45;0.45;;;7.50;99.90;;;;;;4434282;32;20410;-66
2023/02/12 09:10:45;;;;;;;2.40;0.98;;;7.60;99.90;;;;;;4431725;32;20073;-67
2023/02/12 09:13:12;;;;;;;0.60;0.60;;;7.60;99.90;;;;;;4417681;32;20131;-67
2023/02/12 09:15:39;;;;;;;1.12;0.90;;;7.60;99.90;;;;;;4437356;32;20515;-65
2023/02/12 09:18:05;;;;;;;1.00;0.75;;;7.60;99.90;;;;;;4417550;32;20100;-65
2023/02/12 09:20:31;;;;;;;0.55;0.52;;;7.60;99.90;;;;;;4432136;32;20077;-66
2023/02/12 09:22:58;;;;;;;0.52;0.52;;;7.60;99.90;;;;;;4430843;32;20307;-65
2023/02/12 09:25:23;;;;;;;0.55;0.55;;;7.60;99.90;;;;;;4433602;32;20135;-65
2023/02/12 09:27:49;;;;;;;0.68;0.60;;;7.60;99.90;;;;;;4433077;32;20184;-66
2023/02/12 09:30:15;;;;;;;0.70;0.70;;;7.70;99.90;;;;;;4431631;32;20098;-66
2023/02/12 09:32:41;;;;;;;1.02;0.98;;;7.70;99.90;;;;;;4436156;32;20143;-66
2023/02/12 09:35:07;;;;;;;0.30;0.30;;;7.90;99.90;;;;;;4437256;32;20073;-66
2023/02/12 09:37:32;;;;;;;7.95;1.15;;;8.00;99.90;;;;;;4431524;32;20074;-66
2023/02/12 09:39:58;;;;;;;2.85;1.15;;;8.00;99.90;;;;;;4416246;32;20065;-66
2023/02/12 09:42:45;;;;;;;0.80;0.80;;;8.00;99.90;;;;;;4432917;32;20114;-66
2023/02/12 09:45:19;;;;;;;0.50;0.50;;;8.00;99.90;;;;;;4418909;32;20096;-66
2023/02/12 09:48:24;;;;;;;13.30;0.85;;;8.00;99.90;;;;;;4431178;32;20093;-66
2023/02/12 09:50:54;;;;;;;0.85;0.85;;;8.00;99.90;;;;;;4413613;32;20077;-66
2023/02/12 09:53:23;;;;;;;0.50;0.50;;;8.10;99.90;;;;;;4418029;32;20132;-64
2023/02/12 09:55:48;;;;;;;2.30;1.27;;;8.00;99.90;;;;;;4433949;32;20097;-66
2023/02/12 09:58:22;;;;;;;0.80;0.80;;;8.00;99.90;;;;;;4431396;32;20061;-66
2023/02/12 10:00:48;;;;;;;0.88;0.70;;;8.00;99.90;;;;;;4432009;32;20812;-66
2023/02/12 10:03:16;;;;;;;41.03;1.62;;;7.90;99.90;;;;;;4434108;32;20077;-66
2023/02/12 10:05:55;;;;;;;0.40;0.40;;;7.90;99.90;;;;;;4419625;32;20103;-66
2023/02/12 10:08:31;;;;;;;0.35;0.35;;;7.90;99.90;;;;;;4434154;32;20077;-65
2023/02/12 10:11:31;;;;;;;0.55;0.55;;;7.90;99.90;;;;;;4431302;32;20065;-66
2023/02/12 10:14:31;;;;;;;0.30;0.30;;;7.90;99.90;;;;;;4420773;32;20105;-66
2023/02/12 10:17:12;;;;;;;0.60;0.60;;;7.90;99.90;;;;;;4421449;32;20536;-66
2023/02/12 10:20:18;;;;;;;3.60;1.83;;;8.00;99.90;;;;;;4418208;32;20091;-66
2023/02/12 10:23:01;;;;;;;0.60;0.60;;;8.00;99.90;;;;;;4413342;32;20093;-66
2023/02/12 10:25:50;;;;;;;1.27;0.80;;;8.10;99.90;;;;;;4417057;32;20126;-66
2023/02/12 10:28:22;;;;;;;0.90;0.60;;;8.10;99.90;;;;;;4417909;32;20553;-66
2023/02/12 10:30:55;;;;;;;7.03;1.60;;;8.10;99.90;;;;;;4415531;32;20076;-66
2023/02/12 10:33:29;;;;;;;0.77;0.77;;;8.10;99.90;;;;;;4418269;32;20120;-66
2023/02/12 10:36:02;;;;;;;0.65;0.60;;;8.10;99.90;;;;;;4433259;32;20063;-66
2023/02/12 10:38:34;;;;;;;2.83;1.42;;;8.10;99.90;;;;;;4431163;32;20541;-66
2023/02/12 10:41:01;;;;;;;0.45;0.45;;;8.00;99.90;;;;;;4433585;32;20073;-66
2023/02/12 10:43:27;;;;;;;0.52;0.47;;;7.90;99.90;;;;;;4431964;32;20080;-66
2023/02/12 10:45:53;;;;;;;0.45;0.45;;;7.90;99.90;;;;;;4433344;32;20073;-66
2023/02/12 10:48:25;;;;;;;3.87;0.60;;;7.90;99.90;;;;;;4433378;32;20143;-66
2023/02/12 10:51:16;;;;;;;1.25;0.75;;;7.90;99.90;;;;;;4423538;32;20096;-66
2023/02/12 10:53:44;;;;;;;0.60;0.60;;;7.80;99.90;;;;;;4416507;32;20105;-66
2023/02/12 10:56:13;;;;;;;3.70;1.62;;;7.80;99.90;;;;;;4431485;32;20085;-66
2023/02/12 10:58:41;;;;;;;2.72;0.32;;;7.90;99.90;;;;;;4435895;32;20100;-67
2023/02/12 11:01:18;;;;;;;1.77;0.52;;;8.00;99.90;;;;;;4431573;32;20508;-66
2023/02/12 11:03:44;;;;;;;0.82;0.82;;;8.00;99.90;;;;;;4428272;32;20089;-67
2023/02/12 11:06:14;;;;;;;0.50;0.50;;;8.00;99.90;;;;;;4432037;32;20518;-67
2023/02/12 11:08:40;;;;;;;1.05;0.77;;;8.00;99.90;;;;;;4430827;32;20528;-64
2023/02/12 11:11:14;;;;;;;0.40;0.40;;;8.00;99.90;;;;;;4416846;32;20117;-65
2023/02/12 11:13:45;;;;;;;0.85;0.60;;;8.10;99.90;;;;;;4429220;32;20548;-65
2023/02/12 11:16:11;;;;;;;5.80;1.12;;;8.10;99.90;;;;;;4420418;32;20162;-66
2023/02/12 11:18:37;;;;;;;0.62;0.62;;;8.00;99.90;;;;;;4433005;32;20135;-66
2023/02/12 11:21:06;;;;;;;12.57;0.70;;;8.00;99.90;;;;;;4431562;32;21289;-66
2023/02/12 11:23:36;;;;;;;1.08;1.02;;;8.10;99.90;;;;;;4416754;32;20093;-66
2023/02/12 11:26:21;;;;;;;2.20;0.50;;;8.20;99.90;;;;;;4433069;32;20124;-66
2023/02/12 11:29:16;;;;;;;2.80;1.35;;;8.30;99.90;;;;;;4431050;32;20081;-66
2023/02/12 11:31:57;;;;;;;3.22;1.10;;;8.30;99.90;;;;;;4417611;32;20077;-66
2023/02/12 11:34:23;;;;;;;0.47;0.47;;;8.30;99.90;;;;;;4430151;32;20069;-66
2023/02/12 11:36:51;;;;;;;0.65;0.65;;;8.30;99.90;;;;;;4434025;32;20296;-64
2023/02/12 11:39:36;;;;;;;1.20;0.60;;;8.20;99.90;;;;;;4415202;32;20473;-66
2023/02/12 11:42:13;;;;;;;1.33;0.90;;;8.10;99.90;;;;;;4413926;32;85905;-65
2023/02/12 11:44:42;;;;;;;0.43;0.43;;;8.10;99.90;;;;;;4417362;32;20085;-65
2023/02/12 11:47:15;;;;;;;0.75;0.65;;;8.00;99.90;;;;;;4429364;32;20081;-65
2023/02/12 11:49:48;;;;;;;1.20;0.70;;;8.10;99.90;;;;;;4427736;32;20147;-64
2023/02/12 11:52:21;;;;;;;0.50;0.50;;;8.30;99.90;;;;;;4414157;32;20082;-66
2023/02/12 11:54:48;;;;;;;1.77;0.75;;;8.40;99.90;;;;;;4408085;32;20092;-67
2023/02/12 11:57:38;;;;;;;0.47;0.47;;;8.50;99.90;;;;;;4420728;32;20096;-66
2023/02/12 12:00:12;;;;;;;4.82;0.88;;;8.60;99.90;;;;;;4407739;32;20385;-66
2023/02/12 12:02:41;;;;;;;0.60;0.60;;;8.60;99.90;;;;;;4415202;32;20462;-66
2023/02/12 12:05:14;;;;;;;2.03;0.93;;;8.60;99.90;;;;;;4433708;32;20068;-66
2023/02/12 12:07:44;;;;;;;0.68;0.57;;;8.60;99.90;;;;;;4430820;32;20147;-66
2023/02/12 12:10:21;;;;;;;0.40;0.40;;;8.50;99.90;;;;;;4432889;32;20089;-66
2023/02/12 12:12:53;;;;;;;0.68;0.65;;;8.40;99.90;;;;;;4415220;32;20073;-65
2023/02/12 12:19:54;;;;;;;0.40;0.40;;;8.40;99.90;;;;;;4409994;32;20089;-66
2023/02/12 12:21:16;;;;;;;0.40;0.40;;;8.50;99.90;;;;;;4426186;32;20102;-65
2023/02/12 12:23:49;;;;;;;0.30;0.30;;;8.50;99.90;;;;;;4430832;32;20080;-67
2023/02/12 12:26:22;;;;;;;0.70;0.70;;;8.50;99.90;;;;;;4431492;32;20516;-65
2023/02/12 12:29:28;;;;;;;1.65;0.85;;;8.50;99.90;;;;;;4430477;32;20139;-66
2023/02/12 12:31:59;;;;;;;1.15;0.57;;;8.40;99.90;;;;;;4418947;32;20069;-66
2023/02/12 12:34:26;;;;;;;0.80;0.70;;;8.30;99.90;;;;;;4414567;32;20084;-66
2023/02/12 12:37:18;;;;;;;0.45;0.45;;;8.30;99.90;;;;;;4433537;32;20090;-66
2023/02/12 12:40:23;;;;;;;1.77;0.60;;;8.40;99.90;;;;;;4433632;32;20516;-66
2023/02/12 12:43:12;;;;;;;0.40;0.40;;;8.50;99.90;;;;;;4416380;32;20088;-66
2023/02/12 12:46:03;;;;;;;2.45;0.85;;;8.70;99.90;;;;;;4418828;32;20117;-68
2023/02/12 12:48:55;;;;;;;0.50;0.50;;;8.90;99.90;;;;;;4430681;32;20143;-66
2023/02/12 12:51:42;;;;;;;0.62;0.62;;;9.00;99.90;;;;;;4421234;32;20541;-67
2023/02/12 12:54:20;;;;;;;0.43;0.43;;;9.30;99.90;;;;;;4416211;32;20484;-68
2023/02/12 12:57:21;;;;;;;0.40;0.40;;;9.50;99.90;;;;;;4413596;32;20570;-67
2023/02/12 13:00:01;;;;;;;1.35;1.12;;;9.60;99.90;;;;;;4433658;32;20426;-66
2023/02/12 13:03:06;;;;;;;0.40;0.40;;;9.70;99.90;;;;;;4432281;32;20136;-65
2023/02/12 13:05:54;;;;;;;1.05;0.55;;;10.00;99.90;;;;;;4413584;32;20527;-66
2023/02/12 13:08:37;;;;;;;0.50;0.50;;;10.30;99.90;;;;;;4418619;32;20145;-66
2023/02/12 13:11:34;;;;;;;1.33;0.70;;;10.60;99.90;;;;;;4432463;32;20492;-65
2023/02/12 13:14:27;;;;;;;0.40;0.40;;;10.50;99.90;;;;;;4408935;32;20086;-66
2023/02/12 13:17:20;;;;;;;2.20;1.50;;;10.70;99.90;;;;;;4418621;32;20093;-66
2023/02/12 13:20:25;;;;;;;0.85;0.73;;;10.60;99.90;;;;;;4421213;32;20568;-65
2023/02/12 13:23:00;;;;;;;2.87;0.50;;;10.20;99.90;;;;;;4413255;32;20077;-67